Time;durP1;ratioP1;P1;durP2;ratioP2;P2;SDS_P1;SDS_P2;PMS_P1;PMS_P2;Temp;Humidity;BMP_temperature;BMP_pressure;BME280_temperature;BME280_humidity;BME280_pressure;Samples;Min_cycle;Max_cycle;Signal;HPM_P1;HPM_P2
2022/09/26 00:02:15;;;;;;;6.90;5.78;;;;;;;;;;5055600;28;20422;-76
2022/09/26 00:04:40;;;;;;;6.20;5.57;;;;;;;;;;5059355;28;20036;-75
2022/09/26 00:07:05;;;;;;;6.72;5.50;;;;;;;;;;5059208;28;20029;-78
2022/09/26 00:09:31;;;;;;;6.38;5.80;;;;;;;;;;5059659;28;20024;-77
2022/09/26 00:11:56;;;;;;;10.27;7.38;;;;;;;;;;5063314;28;20034;-75
2022/09/26 00:14:26;;;;;;;8.02;6.22;;;;;;;;;;5062018;28;20093;-74
2022/09/26 00:16:51;;;;;;;;;;;;;;;;;;5061591;28;20047;-75
2022/09/26 00:19:16;;;;;;;6.95;6.25;;;;;;;;;;5061417;28;20323;-78
2022/09/26 00:21:42;;;;;;;7.90;7.13;;;;;;;;;;5061676;28;20020;-76
2022/09/26 00:24:08;;;;;;;7.50;6.80;;;;;;;;;;5062708;28;20036;-76
2022/09/26 00:26:34;;;;;;;8.70;6.75;;;;;;;;;;5062850;28;20138;-76
2022/09/26 00:29:06;;;;;;;10.50;9.40;;;;;;;;;;5061339;28;20032;-76
2022/09/26 00:31:33;;;;;;;10.25;9.25;;;;;;;;;;5059762;28;20031;-76
2022/09/26 00:33:59;;;;;;;15.20;13.45;;;;;;;;;;5059434;28;20117;-77
2022/09/26 00:36:25;;;;;;;16.75;15.05;;;;;;;;;;5042143;28;20032;-78
2022/09/26 00:38:50;;;;;;;8.45;7.55;;;;;;;;;;5061687;28;20123;-77
2022/09/26 00:41:16;;;;;;;10.73;9.57;;;;;;;;;;5060435;28;20021;-75
2022/09/26 00:43:43;;;;;;;9.52;8.63;;;;;;;;;;5061113;28;21363;-75
2022/09/26 00:46:26;;;;;;;10.38;9.35;;;;;;;;;;5061256;28;20055;-77
2022/09/26 00:49:01;;;;;;;10.82;9.73;;;;;;;;;;5060515;28;20027;-77
2022/09/26 00:51:26;;;;;;;11.48;10.27;;;;;;;;;;5060073;28;20053;-76
2022/09/26 00:53:52;;;;;;;11.82;10.35;;;;;;;;;;5061244;28;20488;-76
2022/09/26 00:56:21;;;;;;;14.50;10.85;;;;;;;;;;5059562;28;20032;-77
2022/09/26 00:58:55;;;;;;;13.35;10.77;;;;;;;;;;5059576;28;20038;-76
2022/09/26 01:01:20;;;;;;;11.35;9.23;;;;;;;;;;5057385;28;20107;-75
2022/09/26 01:03:46;;;;;;;9.80;8.75;;;;;;;;;;5060481;28;20396;-77
2022/09/26 01:06:12;;;;;;;8.77;7.85;;;;;;;;;;5062299;28;20051;-78
2022/09/26 01:08:40;;;;;;;10.20;8.85;;;;;;;;;;5041740;28;20028;-78
2022/09/26 01:11:05;;;;;;;9.07;8.18;;;;;;;;;;5062379;28;20038;-78
2022/09/26 01:13:33;;;;;;;8.25;7.47;;;;;;;;;;5043062;28;20028;-76
2022/09/26 01:15:58;;;;;;;9.70;8.70;;;;;;;;;;5060531;28;20455;-77
2022/09/26 01:18:23;;;;;;;9.23;8.25;;;;;;;;;;5057378;28;20025;-76
2022/09/26 01:20:58;;;;;;;12.13;10.63;;;;;;;;;;5061694;28;20150;-76
2022/09/26 01:23:36;;;;;;;10.73;9.63;;;;;;;;;;5060535;28;20044;-75
2022/09/26 01:26:20;;;;;;;10.18;8.57;;;;;;;;;;5058514;28;20074;-75
2022/09/26 01:29:04;;;;;;;9.18;8.38;;;;;;;;;;5060796;28;20089;-78
2022/09/26 01:31:33;;;;;;;8.88;7.97;;;;;;;;;;5043512;28;20334;-76
2022/09/26 01:34:20;;;;;;;8.68;7.78;;;;;;;;;;5058927;28;20614;-76
2022/09/26 01:37:04;;;;;;;9.75;8.85;;;;;;;;;;5060869;28;20032;-76
2022/09/26 01:39:29;;;;;;;8.98;8.05;;;;;;;;;;5058980;28;20059;-77
2022/09/26 01:42:04;;;;;;;8.73;7.93;;;;;;;;;;5062489;28;20068;-76
2022/09/26 01:44:29;;;;;;;9.30;8.40;;;;;;;;;;5059600;28;20045;-76
2022/09/26 01:47:07;;;;;;;9.20;8.35;;;;;;;;;;5059768;28;20485;-76
2022/09/26 01:49:56;;;;;;;9.68;8.77;;;;;;;;;;5044417;28;20112;-75
2022/09/26 01:52:24;;;;;;;8.52;7.72;;;;;;;;;;5048646;28;20032;-75
2022/09/26 01:55:09;;;;;;;7.78;7.03;;;;;;;;;;5060387;28;20056;-76
2022/09/26 01:57:40;;;;;;;7.75;7.15;;;;;;;;;;5060648;28;20028;-75
2022/09/26 02:00:07;;;;;;;7.93;7.20;;;;;;;;;;5058569;28;20038;-75
2022/09/26 02:02:35;;;;;;;8.13;6.47;;;;;;;;;;5059913;28;20371;-75
2022/09/26 02:05:03;;;;;;;8.27;7.32;;;;;;;;;;5060619;28;20129;-75
2022/09/26 02:07:33;;;;;;;8.02;7.28;;;;;;;;;;5056167;28;20044;-76
2022/09/26 02:10:02;;;;;;;8.00;7.30;;;;;;;;;;5059897;28;20039;-75
2022/09/26 02:12:31;;;;;;;8.27;7.47;;;;;;;;;;5061355;28;20029;-76
2022/09/26 02:14:59;;;;;;;8.05;7.40;;;;;;;;;;5058885;28;20103;-76
2022/09/26 02:17:27;;;;;;;8.68;7.72;;;;;;;;;;5057661;28;20048;-75
2022/09/26 02:19:55;;;;;;;9.70;8.70;;;;;;;;;;5060433;28;20044;-74
2022/09/26 02:22:21;;;;;;;10.23;9.32;;;;;;;;;;5057990;28;20443;-76
2022/09/26 02:24:46;;;;;;;9.60;8.40;;;;;;;;;;5058864;28;20029;-75
2022/09/26 02:27:12;;;;;;;8.70;7.32;;;;;;;;;;5059204;28;20462;-76
2022/09/26 02:29:39;;;;;;;8.85;7.97;;;;;;;;;;5060838;28;20021;-76
2022/09/26 02:32:11;;;;;;;9.30;8.45;;;;;;;;;;5059910;28;20028;-75
2022/09/26 02:34:37;;;;;;;8.50;7.75;;;;;;;;;;5057698;28;20043;-76
2022/09/26 02:37:04;;;;;;;8.90;8.00;;;;;;;;;;5060775;28;20031;-76
2022/09/26 02:39:29;;;;;;;7.93;7.32;;;;;;;;;;5060661;28;20020;-77
2022/09/26 02:42:13;;;;;;;8.20;7.30;;;;;;;;;;5058391;28;20025;-76
2022/09/26 02:44:47;;;;;;;8.27;7.18;;;;;;;;;;5059235;28;20060;-75
2022/09/26 02:47:28;;;;;;;11.43;7.70;;;;;;;;;;5050213;28;20098;-76
2022/09/26 02:49:59;;;;;;;7.93;7.22;;;;;;;;;;5052054;28;20104;-75
2022/09/26 02:52:43;;;;;;;7.13;6.55;;;;;;;;;;5059472;28;20039;-74
2022/09/26 02:55:17;;;;;;;7.18;6.55;;;;;;;;;;5061140;28;20021;-77
2022/09/26 02:57:52;;;;;;;6.75;6.25;;;;;;;;;;5056032;28;20079;-75
2022/09/26 03:00:21;;;;;;;7.63;7.00;;;;;;;;;;5035504;28;20444;-76
2022/09/26 03:02:49;;;;;;;8.80;7.38;;;;;;;;;;5043461;28;20020;-75
2022/09/26 03:05:19;;;;;;;7.80;7.15;;;;;;;;;;5054012;28;20051;-75
2022/09/26 03:08:01;;;;;;;8.73;7.53;;;;;;;;;;5036064;28;20037;-74
2022/09/26 03:10:28;;;;;;;7.30;6.53;;;;;;;;;;5045386;28;20136;-82
2022/09/26 03:12:56;;;;;;;7.40;6.80;;;;;;;;;;5057828;28;20037;-76
2022/09/26 03:15:22;;;;;;;7.93;7.13;;;;;;;;;;5057339;28;20028;-77
2022/09/26 03:17:50;;;;;;;6.82;6.32;;;;;;;;;;5059476;28;20141;-75
2022/09/26 03:20:17;;;;;;;7.78;7.07;;;;;;;;;;5056893;28;20436;-77
2022/09/26 03:22:43;;;;;;;7.40;6.72;;;;;;;;;;5058514;28;20033;-77
2022/09/26 03:25:10;;;;;;;8.30;7.50;;;;;;;;;;5036974;28;20038;-75
2022/09/26 03:27:37;;;;;;;8.90;8.13;;;;;;;;;;5038675;28;20464;-75
2022/09/26 03:30:03;;;;;;;7.78;7.00;;;;;;;;;;5042740;28;20030;-76
2022/09/26 03:32:29;;;;;;;9.18;8.27;;;;;;;;;;5038733;28;20016;-76
2022/09/26 03:34:55;;;;;;;8.52;7.72;;;;;;;;;;5039290;28;20447;-76
2022/09/26 03:37:20;;;;;;;7.07;6.38;;;;;;;;;;5040811;28;20099;-76
2022/09/26 03:39:45;;;;;;;7.32;6.63;;;;;;;;;;5037048;28;20036;-76
2022/09/26 03:42:13;;;;;;;9.77;6.20;;;;;;;;;;5035831;28;20026;-77
2022/09/26 03:44:38;;;;;;;8.45;7.50;;;;;;;;;;5046574;28;20070;-75
2022/09/26 03:47:04;;;;;;;7.35;6.70;;;;;;;;;;5043647;28;20467;-78
2022/09/26 03:49:29;;;;;;;8.18;7.47;;;;;;;;;;5039594;28;20408;-76
2022/09/26 03:51:55;;;;;;;9.63;8.73;;;;;;;;;;5041792;28;20108;-77
2022/09/26 03:54:20;;;;;;;10.27;9.38;;;;;;;;;;5042983;28;20435;-76
2022/09/26 03:56:45;;;;;;;12.20;10.90;;;;;;;;;;5044574;28;20044;-76
2022/09/26 03:59:12;;;;;;;9.23;8.43;;;;;;;;;;5042021;28;20120;-77
2022/09/26 04:01:37;;;;;;;9.23;8.43;;;;;;;;;;5042653;28;20021;-75
2022/09/26 04:04:03;;;;;;;10.63;9.52;;;;;;;;;;5044536;28;20351;-78
2022/09/26 04:06:28;;;;;;;9.60;8.15;;;;;;;;;;5043683;28;20033;-77
2022/09/26 04:08:53;;;;;;;7.68;6.97;;;;;;;;;;5043071;28;20039;-78
2022/09/26 04:11:20;;;;;;;8.63;7.82;;;;;;;;;;5044262;28;20091;-77
2022/09/26 04:13:46;;;;;;;80.05;71.80;;;;;;;;;;5060477;28;20032;-76
2022/09/26 04:16:11;;;;;;;77.65;70.60;;;;;;;;;;5063937;28;20359;-76
2022/09/26 04:18:37;;;;;;;25.98;23.88;;;;;;;;;;5062118;28;20032;-74
2022/09/26 04:21:04;;;;;;;12.63;11.43;;;;;;;;;;5054375;28;20052;-75
2022/09/26 04:23:30;;;;;;;13.98;12.70;;;;;;;;;;5049801;28;20341;-74
2022/09/26 04:25:55;;;;;;;14.10;12.90;;;;;;;;;;5042424;28;20029;-75
2022/09/26 04:28:21;;;;;;;9.57;8.05;;;;;;;;;;5062521;28;20017;-76
2022/09/26 04:30:48;;;;;;;6.88;6.38;;;;;;;;;;5059488;28;20033;-76
2022/09/26 04:33:13;;;;;;;7.63;7.00;;;;;;;;;;5044395;28;20111;-74
2022/09/26 04:35:38;;;;;;;7.15;6.50;;;;;;;;;;5059668;28;20163;-75
2022/09/26 04:38:04;;;;;;;7.10;6.30;;;;;;;;;;5061915;28;20023;-74
2022/09/26 04:40:30;;;;;;;7.95;7.07;;;;;;;;;;5045714;28;20029;-78
2022/09/26 04:42:56;;;;;;;6.30;5.68;;;;;;;;;;5054112;28;20028;-77
2022/09/26 04:45:21;;;;;;;6.30;5.80;;;;;;;;;;5059543;28;20044;-76
2022/09/26 04:47:46;;;;;;;7.38;6.78;;;;;;;;;;5061572;28;20037;-77
2022/09/26 04:50:12;;;;;;;6.43;5.82;;;;;;;;;;5044225;28;20073;-74
2022/09/26 04:52:37;;;;;;;6.85;6.18;;;;;;;;;;5062841;28;20032;-76
2022/09/26 04:55:02;;;;;;;7.30;6.40;;;;;;;;;;5059336;28;20025;-77
2022/09/26 04:57:28;;;;;;;8.50;7.80;;;;;;;;;;5061630;28;20025;-76
2022/09/26 04:59:53;;;;;;;8.13;7.30;;;;;;;;;;5060765;28;20121;-76
2022/09/26 05:02:19;;;;;;;10.63;9.07;;;;;;;;;;5059179;28;20024;-77
2022/09/26 05:04:46;;;;;;;11.63;9.13;;;;;;;;;;5058024;28;20037;-77
2022/09/26 05:07:13;;;;;;;8.60;7.82;;;;;;;;;;5058999;28;20119;-76
2022/09/26 05:09:38;;;;;;;12.40;11.10;;;;;;;;;;5060160;28;20080;-74
2022/09/26 05:12:03;;;;;;;14.80;13.10;;;;;;;;;;5061396;28;20127;-75
2022/09/26 05:14:29;;;;;;;18.42;16.35;;;;;;;;;;5050241;28;20111;-76
2022/09/26 05:16:54;;;;;;;21.33;19.02;;;;;;;;;;5052736;28;20032;-76
2022/09/26 05:19:20;;;;;;;17.42;15.50;;;;;;;;;;5051066;28;20032;-77
2022/09/26 05:21:45;;;;;;;25.67;20.33;;;;;;;;;;5049218;28;20028;-76
2022/09/26 05:26:55;;;;;;;28.88;25.27;;;;;;;;;;5060184;28;20047;-76
2022/09/26 05:29:20;;;;;;;25.95;22.45;;;;;;;;;;5061261;28;20103;-78
2022/09/26 05:31:46;;;;;;;22.25;18.25;;;;;;;;;;5061163;28;20037;-76
2022/09/26 05:34:12;;;;;;;12.20;11.00;;;;;;;;;;5060401;28;20440;-77
2022/09/26 05:36:38;;;;;;;10.02;9.02;;;;;;;;;;5061014;28;20039;-76
2022/09/26 05:39:04;;;;;;;8.88;8.07;;;;;;;;;;5060820;28;20508;-76
2022/09/26 05:41:30;;;;;;;8.13;7.43;;;;;;;;;;5059361;28;20119;-75
2022/09/26 05:43:55;;;;;;;10.02;9.02;;;;;;;;;;5057965;28;20544;-75
2022/09/26 05:46:21;;;;;;;9.38;8.57;;;;;;;;;;5056741;28;20044;-76
2022/09/26 05:48:46;;;;;;;16.48;15.07;;;;;;;;;;5058050;28;20063;-75
2022/09/26 05:51:13;;;;;;;27.90;23.70;;;;;;;;;;5057900;28;20024;-77
2022/09/26 05:53:39;;;;;;;12.88;11.68;;;;;;;;;;5059226;28;20035;-76
2022/09/26 05:56:05;;;;;;;14.25;12.60;;;;;;;;;;5059378;28;20024;-76
2022/09/26 05:58:31;;;;;;;30.98;25.65;;;;;;;;;;5055360;28;20043;-77
2022/09/26 06:01:03;;;;;;;25.90;23.48;;;;;;;;;;5058984;28;20458;-74
2022/09/26 06:03:33;;;;;;;51.95;46.90;;;;;;;;;;5058590;28;20321;-74
2022/09/26 06:06:09;;;;;;;27.08;24.67;;;;;;;;;;5057706;28;20104;-75
2022/09/26 06:08:35;;;;;;;11.70;10.80;;;;;;;;;;5058547;28;20329;-76
2022/09/26 06:11:05;;;;;;;8.70;7.80;;;;;;;;;;5058289;28;20031;-76
2022/09/26 06:13:31;;;;;;;11.70;8.02;;;;;;;;;;5054876;28;20102;-74
2022/09/26 06:15:59;;;;;;;7.60;6.80;;;;;;;;;;5059079;28;20020;-75
2022/09/26 06:18:25;;;;;;;7.97;6.60;;;;;;;;;;5059867;28;20119;-76
2022/09/26 06:20:50;;;;;;;8.30;7.07;;;;;;;;;;5057290;28;20112;-75
2022/09/26 06:23:15;;;;;;;7.03;6.40;;;;;;;;;;5059493;28;20350;-76
2022/09/26 06:25:41;;;;;;;6.75;6.15;;;;;;;;;;5058690;28;20424;-75
2022/09/26 06:28:06;;;;;;;5.85;5.43;;;;;;;;;;5058661;28;20040;-77
2022/09/26 06:30:32;;;;;;;7.28;6.57;;;;;;;;;;5058661;28;20033;-75
2022/09/26 06:32:57;;;;;;;8.20;7.53;;;;;;;;;;5059978;28;20058;-75
2022/09/26 06:35:23;;;;;;;9.43;7.00;;;;;;;;;;5060271;28;20029;-74
2022/09/26 06:37:48;;;;;;;9.10;8.30;;;;;;;;;;5059012;28;20030;-74
2022/09/26 06:40:14;;;;;;;8.23;7.43;;;;;;;;;;5058924;28;20112;-75
2022/09/26 06:42:39;;;;;;;8.60;7.43;;;;;;;;;;5056700;28;20024;-74
2022/09/26 06:45:06;;;;;;;15.63;13.77;;;;;;;;;;5047893;28;20136;-75
2022/09/26 06:47:32;;;;;;;27.83;24.92;;;;;;;;;;5035126;28;20426;-75
2022/09/26 06:49:57;;;;;;;18.23;16.33;;;;;;;;;;5057698;28;20035;-76
2022/09/26 06:52:25;;;;;;;17.63;14.00;;;;;;;;;;5039432;28;20123;-77
2022/09/26 06:54:50;;;;;;;11.93;10.73;;;;;;;;;;5041874;28;20090;-76
2022/09/26 06:57:16;;;;;;;13.27;11.93;;;;;;;;;;5043121;28;20424;-75
2022/09/26 06:59:41;;;;;;;17.80;15.32;;;;;;;;;;5033121;28;20024;-75
2022/09/26 07:02:07;;;;;;;22.88;20.77;;;;;;;;;;5056289;28;20035;-77
2022/09/26 07:04:34;;;;;;;22.58;20.10;;;;;;;;;;5060433;28;20501;-76
2022/09/26 07:07:00;;;;;;;23.00;19.42;;;;;;;;;;5058891;28;20346;-77
2022/09/26 07:09:25;;;;;;;19.27;17.27;;;;;;;;;;5059771;28;20024;-77
2022/09/26 07:11:51;;;;;;;14.77;13.35;;;;;;;;;;5047976;28;20031;-76
2022/09/26 07:14:16;;;;;;;17.67;15.40;;;;;;;;;;5037715;28;20028;-76
2022/09/26 07:16:47;;;;;;;14.70;12.25;;;;;;;;;;5046091;28;20075;-76
2022/09/26 07:19:12;;;;;;;10.90;9.98;;;;;;;;;;5042255;28;20107;-75
2022/09/26 07:21:38;;;;;;;11.18;10.15;;;;;;;;;;5046891;28;20127;-77
2022/09/26 07:24:03;;;;;;;13.00;10.95;;;;;;;;;;5043269;28;20033;-74
2022/09/26 07:26:29;;;;;;;32.78;24.30;;;;;;;;;;5043487;28;20108;-75
2022/09/26 07:28:54;;;;;;;57.72;45.42;;;;;;;;;;5042575;28;20025;-75
2022/09/26 07:31:22;;;;;;;32.03;28.35;;;;;;;;;;5045761;28;20032;-75
2022/09/26 07:33:47;;;;;;;33.90;30.52;;;;;;;;;;5045133;28;20020;-76
2022/09/26 07:36:13;;;;;;;19.25;15.35;;;;;;;;;;5043459;28;20807;-76
2022/09/26 07:38:38;;;;;;;16.08;14.48;;;;;;;;;;5047690;28;20028;-71
2022/09/26 07:41:04;;;;;;;17.75;15.98;;;;;;;;;;5060288;28;20036;-76
2022/09/26 07:43:29;;;;;;;14.55;13.07;;;;;;;;;;5042357;28;20124;-77
2022/09/26 07:51:23;;;;;;;13.70;11.60;;;;;;;;;;5041449;28;20087;-75
2022/09/26 07:53:48;;;;;;;16.20;13.13;;;;;;;;;;5044799;28;20451;-78
2022/09/26 07:56:15;;;;;;;36.50;32.85;;;;;;;;;;5064607;28;20993;-78
2022/09/26 07:58:42;;;;;;;41.78;37.20;;;;;;;;;;5044045;28;20036;-80
2022/09/26 08:01:10;;;;;;;26.40;23.65;;;;;;;;;;5037949;28;20063;-78
2022/09/26 08:03:35;;;;;;;26.27;23.45;;;;;;;;;;5038594;28;20036;-78
2022/09/26 08:06:01;;;;;;;19.42;17.38;;;;;;;;;;5040749;28;20036;-80
2022/09/26 08:08:28;;;;;;;15.60;13.98;;;;;;;;;;5061446;28;20039;-79
2022/09/26 08:10:55;;;;;;;16.25;14.52;;;;;;;;;;5061990;28;20025;-78
2022/09/26 08:13:21;;;;;;;16.27;14.52;;;;;;;;;;5057116;28;20343;-78
2022/09/26 08:15:46;;;;;;;18.25;16.40;;;;;;;;;;5040180;28;20029;-79
2022/09/26 08:18:11;;;;;;;15.45;13.95;;;;;;;;;;5041100;28;20033;-78
2022/09/26 08:20:37;;;;;;;11.75;9.95;;;;;;;;;;5038825;28;20089;-78
2022/09/26 08:23:03;;;;;;;14.73;13.13;;;;;;;;;;5037732;28;20032;-79
2022/09/26 08:25:29;;;;;;;16.38;11.95;;;;;;;;;;5040190;28;20039;-76
2022/09/26 08:27:58;;;;;;;9.85;8.75;;;;;;;;;;5041016;28;20029;-78
2022/09/26 08:30:24;;;;;;;8.95;7.55;;;;;;;;;;5036289;28;20033;-79
2022/09/26 08:32:53;;;;;;;8.88;7.88;;;;;;;;;;5043025;28;20070;-78
2022/09/26 08:35:18;;;;;;;8.57;7.70;;;;;;;;;;5061449;28;20021;-78
2022/09/26 08:37:43;;;;;;;9.73;8.77;;;;;;;;;;5052377;28;20025;-77
2022/09/26 08:40:09;;;;;;;8.52;7.32;;;;;;;;;;5040203;28;20086;-78
2022/09/26 08:42:53;;;;;;;7.28;5.53;;;;;;;;;;5058533;28;20090;-76
2022/09/26 08:48:35;;;;;;;9.63;8.63;;;;;;;;;;5040030;28;20039;-78
2022/09/26 08:51:23;;;;;;;14.30;6.75;;;;;;;;;;5040763;28;20025;-78
2022/09/26 08:53:54;;;;;;;6.22;5.40;;;;;;;;;;5040389;28;20487;-78
2022/09/26 08:56:22;;;;;;;6.00;4.57;;;;;;;;;;5037631;28;20561;-77
2022/09/26 08:58:51;;;;;;;5.32;4.22;;;;;;;;;;5041196;28;20029;-78
2022/09/26 09:01:25;;;;;;;5.95;5.05;;;;;;;;;;5046013;28;20025;-79
2022/09/26 09:03:54;;;;;;;5.28;4.68;;;;;;;;;;5058163;28;20104;-76
2022/09/26 09:06:20;;;;;;;9.98;7.82;;;;;;;;;;5058827;28;20032;-78
2022/09/26 09:08:54;;;;;;;8.88;7.63;;;;;;;;;;5060285;28;20359;-77
2022/09/26 09:11:25;;;;;;;7.97;7.18;;;;;;;;;;5058673;28;20036;-77
2022/09/26 09:14:06;;;;;;;12.98;11.77;;;;;;;;;;5058321;28;20103;-77
2022/09/26 09:16:31;;;;;;;32.13;28.73;;;;;;;;;;5059189;28;20028;-77
2022/09/26 09:19:01;;;;;;;39.92;34.78;;;;;;;;;;5058650;28;20021;-74
2022/09/26 09:21:26;;;;;;;;;;;;;;;;;;5060834;28;20023;-76
2022/09/26 09:24:11;;;;;;;23.93;21.53;;;;;;;;;;5058582;28;19908;-77
2022/09/26 09:26:47;;;;;;;18.80;16.60;;;;;;;;;;5060654;28;20448;-78
2022/09/26 09:29:31;;;;;;;9.63;8.30;;;;;;;;;;5059585;28;20039;-76
2022/09/26 09:31:59;;;;;;;12.52;11.07;;;;;;;;;;5057808;28;20021;-77
2022/09/26 09:34:26;;;;;;;8.18;7.38;;;;;;;;;;5058432;28;20468;-78
2022/09/26 09:36:55;;;;;;;6.63;4.60;;;;;;;;;;5057526;28;20052;-79
2022/09/26 09:39:40;;;;;;;6.20;4.27;;;;;;;;;;5037596;28;20055;-78
2022/09/26 09:42:16;;;;;;;5.13;4.63;;;;;;;;;;5034589;28;20156;-77
2022/09/26 09:44:51;;;;;;;5.53;4.78;;;;;;;;;;5045965;28;20456;-77
2022/09/26 09:47:17;;;;;;;6.00;5.40;;;;;;;;;;5035355;28;20040;-77
2022/09/26 09:49:43;;;;;;;5.63;4.72;;;;;;;;;;5039052;28;20029;-77
2022/09/26 09:52:27;;;;;;;7.95;7.07;;;;;;;;;;5036102;28;20099;-76
2022/09/26 09:54:56;;;;;;;7.80;7.03;;;;;;;;;;5061868;28;20086;-78
2022/09/26 09:57:40;;;;;;;7.82;5.80;;;;;;;;;;5059408;28;20031;-75
2022/09/26 10:00:15;;;;;;;7.00;5.93;;;;;;;;;;5058600;28;20020;-77
2022/09/26 10:02:46;;;;;;;7.00;4.65;;;;;;;;;;5056468;28;20016;-76
2022/09/26 10:05:15;;;;;;;5.32;4.82;;;;;;;;;;5048160;28;20025;-75
2022/09/26 10:07:41;;;;;;;5.13;4.68;;;;;;;;;;5037874;28;20115;-74
2022/09/26 10:10:13;;;;;;;7.63;4.45;;;;;;;;;;5036787;28;20116;-78
2022/09/26 10:12:40;;;;;;;4.18;3.83;;;;;;;;;;5033550;28;20036;-75
2022/09/26 10:15:18;;;;;;;5.40;3.92;;;;;;;;;;5052310;28;20043;-75
2022/09/26 10:17:59;;;;;;;5.25;4.60;;;;;;;;;;5059151;28;20047;-74
2022/09/26 10:20:47;;;;;;;9.40;4.20;;;;;;;;;;5059315;28;20427;-75
2022/09/26 10:23:18;;;;;;;4.80;4.40;;;;;;;;;;5049380;28;20128;-77
2022/09/26 10:25:48;;;;;;;8.25;6.55;;;;;;;;;;5062938;28;20029;-75
2022/09/26 10:28:25;;;;;;;5.65;4.50;;;;;;;;;;5059441;28;20111;-76
2022/09/26 10:30:54;;;;;;;6.72;5.80;;;;;;;;;;5060866;28;20024;-76
2022/09/26 10:33:22;;;;;;;9.23;7.13;;;;;;;;;;5057561;28;20024;-77
2022/09/26 10:35:50;;;;;;;6.07;3.88;;;;;;;;;;5059706;28;20039;-77
2022/09/26 10:38:28;;;;;;;6.50;4.30;;;;;;;;;;5060474;28;20024;-75
2022/09/26 10:40:56;;;;;;;4.78;4.38;;;;;;;;;;5055941;28;20347;-76
2022/09/26 10:43:22;;;;;;;8.73;6.22;;;;;;;;;;5059009;28;21173;-75
2022/09/26 10:45:52;;;;;;;4.70;4.28;;;;;;;;;;5057860;28;20106;-74
2022/09/26 10:48:20;;;;;;;4.93;4.47;;;;;;;;;;5057948;28;20462;-74
2022/09/26 10:50:50;;;;;;;5.07;4.68;;;;;;;;;;5058189;28;20064;-75
2022/09/26 10:53:16;;;;;;;10.15;4.47;;;;;;;;;;5059340;28;20151;-76
2022/09/26 10:56:08;;;;;;;4.40;3.75;;;;;;;;;;5059072;28;20082;-75
2022/09/26 10:58:37;;;;;;;10.23;4.40;;;;;;;;;;5057524;28;20033;-75
2022/09/26 11:01:03;;;;;;;4.57;3.92;;;;;;;;;;5059357;28;20129;-75
2022/09/26 11:03:33;;;;;;;8.30;4.22;;;;;;;;;;5058083;28;20428;-74
2022/09/26 11:05:58;;;;;;;13.82;5.25;;;;;;;;;;5055722;28;20028;-75
2022/09/26 11:08:28;;;;;;;11.88;5.10;;;;;;;;;;5054814;28;20351;-73
2022/09/26 11:10:55;;;;;;;11.98;6.18;;;;;;;;;;5045590;28;20526;-76
2022/09/26 11:13:21;;;;;;;12.93;6.47;;;;;;;;;;5058713;28;20460;-73
2022/09/26 11:16:05;;;;;;;4.70;4.30;;;;;;;;;;5056645;28;20032;-73
2022/09/26 11:18:47;;;;;;;7.95;4.32;;;;;;;;;;5058232;28;20399;-75
2022/09/26 11:21:18;;;;;;;7.35;4.30;;;;;;;;;;5058654;28;20321;-74
2022/09/26 11:23:45;;;;;;;5.78;5.15;;;;;;;;;;5057962;28;20039;-73
2022/09/26 11:26:20;;;;;;;5.28;4.15;;;;;;;;;;5058957;28;20036;-74
2022/09/26 11:28:46;;;;;;;7.20;5.32;;;;;;;;;;5057734;28;20036;-74
2022/09/26 11:31:21;;;;;;;11.80;9.23;;;;;;;;;;5056989;28;20016;-77
2022/09/26 11:33:47;;;;;;;16.13;14.57;;;;;;;;;;5047892;28;20035;-75
2022/09/26 11:36:15;;;;;;;5.57;5.07;;;;;;;;;;5036338;28;20367;-75
2022/09/26 11:38:41;;;;;;;7.65;4.38;;;;;;;;;;5035679;28;20035;-76
2022/09/26 11:41:37;;;;;;;4.32;3.92;;;;;;;;;;5035235;28;20032;-75
2022/09/26 11:44:05;;;;;;;5.22;4.50;;;;;;;;;;5034094;28;20333;-76
2022/09/26 11:46:54;;;;;;;5.05;4.57;;;;;;;;;;5037189;28;20039;-76
2022/09/26 11:49:38;;;;;;;5.57;4.85;;;;;;;;;;5036161;28;20376;-76
2022/09/26 11:52:24;;;;;;;5.10;4.57;;;;;;;;;;5036269;28;20028;-74
2022/09/26 11:54:57;;;;;;;6.57;4.10;;;;;;;;;;5034416;28;20712;-75
2022/09/26 11:57:41;;;;;;;4.82;4.32;;;;;;;;;;5037732;28;20395;-75
2022/09/26 12:00:10;;;;;;;5.70;4.30;;;;;;;;;;5035410;28;20045;-75
2022/09/26 12:02:56;;;;;;;8.43;4.68;;;;;;;;;;5036136;28;21066;-75
2022/09/26 12:05:47;;;;;;;6.32;4.30;;;;;;;;;;5041876;28;20021;-76
2022/09/26 12:08:20;;;;;;;5.00;4.50;;;;;;;;;;5040328;28;20401;-74
2022/09/26 12:10:48;;;;;;;9.60;6.90;;;;;;;;;;5061727;28;20097;-74
2022/09/26 12:13:20;;;;;;;8.88;7.43;;;;;;;;;;5062730;28;20315;-74
2022/09/26 12:15:57;;;;;;;7.20;5.80;;;;;;;;;;5060658;28;20488;-75
2022/09/26 12:18:22;;;;;;;13.25;6.15;;;;;;;;;;5058590;28;20032;-75
2022/09/26 12:20:55;;;;;;;14.10;5.78;;;;;;;;;;5060219;28;20036;-73
2022/09/26 12:23:36;;;;;;;14.48;9.20;;;;;;;;;;5058999;28;20019;-75
2022/09/26 12:26:15;;;;;;;8.48;6.53;;;;;;;;;;5034616;28;20043;-75
2022/09/26 12:28:56;;;;;;;11.40;8.52;;;;;;;;;;5039956;28;20036;-77
2022/09/26 12:31:46;;;;;;;12.95;10.73;;;;;;;;;;5038931;28;20368;-74
2022/09/26 12:34:17;;;;;;;11.48;9.82;;;;;;;;;;5037326;28;20025;-75
2022/09/26 12:36:57;;;;;;;10.98;7.22;;;;;;;;;;5040551;28;20056;-74
2022/09/26 12:39:34;;;;;;;6.32;5.05;;;;;;;;;;5037878;28;20847;-76
2022/09/26 12:42:13;;;;;;;10.00;6.70;;;;;;;;;;5040009;28;20034;-74
2022/09/26 12:44:45;;;;;;;13.88;8.73;;;;;;;;;;5040871;28;20376;-75
2022/09/26 12:47:22;;;;;;;10.80;8.48;;;;;;;;;;5041158;28;20440;-74
2022/09/26 12:50:28;;;;;;;8.43;6.55;;;;;;;;;;5055649;28;20036;-74
2022/09/26 12:52:53;;;;;;;11.45;9.25;;;;;;;;;;5007113;28;20036;-74
2022/09/26 12:55:36;;;;;;;9.73;8.07;;;;;;;;;;5037849;28;20067;-74
2022/09/26 12:58:04;;;;;;;9.80;6.95;;;;;;;;;;5039614;28;20036;-74
2022/09/26 13:00:39;;;;;;;11.95;9.82;;;;;;;;;;5038306;28;20359;-76
2022/09/26 13:03:23;;;;;;;14.43;12.85;;;;;;;;;;5037884;28;20074;-75
2022/09/26 13:05:57;;;;;;;19.88;17.27;;;;;;;;;;5037193;28;20790;-74
2022/09/26 13:08:26;;;;;;;24.00;21.48;;;;;;;;;;5048295;28;20501;-74
2022/09/26 13:10:52;;;;;;;17.35;15.70;;;;;;;;;;5060927;28;20035;-74
2022/09/26 13:13:21;;;;;;;13.23;11.93;;;;;;;;;;5059701;28;20032;-74
2022/09/26 13:15:47;;;;;;;11.90;10.05;;;;;;;;;;5058077;28;20029;-74
2022/09/26 13:18:18;;;;;;;10.05;9.15;;;;;;;;;;5058913;28;20111;-74
2022/09/26 13:20:48;;;;;;;9.95;9.05;;;;;;;;;;5056973;28;20166;-75
2022/09/26 13:23:29;;;;;;;8.75;7.40;;;;;;;;;;5037419;28;20028;-78
2022/09/26 13:26:00;;;;;;;9.10;8.30;;;;;;;;;;5052038;28;20059;-77
2022/09/26 13:28:29;;;;;;;10.75;9.75;;;;;;;;;;5039188;28;20020;-76
2022/09/26 13:31:04;;;;;;;17.10;15.30;;;;;;;;;;5042991;28;20032;-77
2022/09/26 13:33:32;;;;;;;31.25;24.20;;;;;;;;;;5041470;28;20028;-76
2022/09/26 13:35:59;;;;;;;22.30;16.77;;;;;;;;;;5039848;28;20021;-76
2022/09/26 13:38:33;;;;;;;40.13;24.83;;;;;;;;;;5040936;28;22381;-77
2022/09/26 13:41:08;;;;;;;30.30;19.73;;;;;;;;;;5038108;28;20316;-77
2022/09/26 13:43:52;;;;;;;12.90;10.65;;;;;;;;;;5039402;28;20060;-78
2022/09/26 13:46:35;;;;;;;13.45;12.13;;;;;;;;;;5022021;28;20037;-77
2022/09/26 13:49:15;;;;;;;35.28;31.05;;;;;;;;;;5018735;28;20396;-77
2022/09/26 13:51:45;;;;;;;24.83;17.80;;;;;;;;;;5018214;28;20421;-79
2022/09/26 13:54:17;;;;;;;19.55;13.45;;;;;;;;;;5021075;28;20025;-80
2022/09/26 13:56:48;;;;;;;15.25;10.60;;;;;;;;;;5032119;28;20360;-79
2022/09/26 13:59:14;;;;;;;16.88;9.75;;;;;;;;;;5017791;28;20086;-79
2022/09/26 14:01:58;;;;;;;24.38;11.25;;;;;;;;;;5019532;28;20075;-77
2022/09/26 14:04:33;;;;;;;19.02;10.57;;;;;;;;;;5020191;28;20025;-77
2022/09/26 14:07:01;;;;;;;15.38;9.55;;;;;;;;;;5017685;28;20104;-77
2022/09/26 14:09:39;;;;;;;16.02;9.65;;;;;;;;;;5016374;28;20087;-76
2022/09/26 14:12:19;;;;;;;13.45;11.75;;;;;;;;;;5019228;28;20031;-76
2022/09/26 14:14:49;;;;;;;10.65;9.38;;;;;;;;;;5017944;28;20033;-78
2022/09/26 14:17:14;;;;;;;;;;;;;;;;;;5019337;28;20024;-78
2022/09/26 14:19:41;;;;;;;14.10;12.63;;;;;;;;;;5018940;28;19912;-75
2022/09/26 14:22:15;;;;;;;13.05;9.32;;;;;;;;;;5033920;28;20031;-75
2022/09/26 14:24:41;;;;;;;151.80;94.40;;;;;;;;;;5037578;28;20091;-75
2022/09/26 14:27:12;;;;;;;30.27;22.00;;;;;;;;;;5038575;28;20374;-75
2022/09/26 14:29:38;;;;;;;16.20;14.55;;;;;;;;;;5038454;28;20045;-76
2022/09/26 14:32:06;;;;;;;14.75;13.30;;;;;;;;;;5019388;28;20028;-75
2022/09/26 14:34:35;;;;;;;13.40;12.17;;;;;;;;;;5015388;28;20036;-75
2022/09/26 14:37:02;;;;;;;17.90;14.15;;;;;;;;;;5016932;28;20032;-75
2022/09/26 14:39:30;;;;;;;26.90;19.05;;;;;;;;;;5017347;28;20032;-74
2022/09/26 14:41:57;;;;;;;15.77;14.13;;;;;;;;;;5016415;28;20113;-77
2022/09/26 14:44:26;;;;;;;23.38;19.05;;;;;;;;;;5017615;28;20052;-74
2022/09/26 14:46:53;;;;;;;37.10;33.65;;;;;;;;;;5036246;28;20033;-77
2022/09/26 14:49:22;;;;;;;30.40;27.67;;;;;;;;;;5040547;28;20036;-75
2022/09/26 14:51:48;;;;;;;59.17;49.47;;;;;;;;;;5057274;28;20032;-75
2022/09/26 14:54:24;;;;;;;19.40;17.35;;;;;;;;;;5059247;28;20031;-73
2022/09/26 14:57:01;;;;;;;12.10;11.00;;;;;;;;;;5055897;28;20036;-75
2022/09/26 14:59:47;;;;;;;28.92;26.25;;;;;;;;;;5041301;28;20024;-75
2022/09/26 15:02:12;;;;;;;11.30;9.98;;;;;;;;;;5041246;28;20056;-74